Time;durP1;ratioP1;P1;durP2;ratioP2;P2;SDS_P1;SDS_P2;PMS_P1;PMS_P2;Temp;Humidity;BMP_temperature;BMP_pressure;BME280_temperature;BME280_humidity;BME280_pressure;Samples;Min_cycle;Max_cycle;Signal;HPM_P1;HPM_P2
2022/01/22 00:01:43;;;;;;;0.70;0.70;;;;;;;-7.32;85.00;97480.09;5041689;28;20466;-90
2022/01/22 00:04:10;;;;;;;0.80;0.80;;;;;;;-7.42;84.86;97473.28;5046987;28;20095;-90
2022/01/22 00:06:39;;;;;;;0.50;0.50;;;;;;;-7.41;84.79;97474.91;5046397;28;20061;-90
2022/01/22 00:09:07;;;;;;;0.60;0.60;;;;;;;-7.43;84.98;97482.09;5043681;28;20049;-90
2022/01/22 00:11:39;;;;;;;0.80;0.80;;;;;;;-7.39;85.00;97476.53;5043021;28;20102;-90
2022/01/22 00:14:25;;;;;;;0.75;0.75;;;;;;;-7.39;84.94;97487.00;5043599;28;20500;-90
2022/01/22 00:16:56;;;;;;;0.80;0.80;;;;;;;-7.38;84.70;97480.78;5042166;28;20051;-90
2022/01/22 00:19:23;;;;;;;0.70;0.70;;;;;;;-7.39;84.64;97482.59;5043813;28;20057;-91
2022/01/22 00:21:51;;;;;;;0.65;0.65;;;;;;;-7.38;84.73;97486.84;5040571;28;20132;-92
2022/01/22 00:24:21;;;;;;;0.77;0.77;;;;;;;-7.35;84.94;97483.06;5045619;28;20063;-91
2022/01/22 00:26:48;;;;;;;0.63;0.63;;;;;;;-7.33;84.76;97486.34;5048320;28;20049;-91
2022/01/22 00:29:16;;;;;;;0.68;0.68;;;;;;;-7.32;84.59;97482.72;5048855;28;20249;-90
2022/01/22 00:31:44;;;;;;;0.70;0.70;;;;;;;-7.29;84.75;97482.38;5068687;28;20041;-92
2022/01/22 00:34:14;;;;;;;0.80;0.80;;;;;;;-7.30;84.57;97478.13;5029748;28;20049;-94
2022/01/22 00:36:41;;;;;;;0.70;0.70;;;;;;;-7.29;84.66;97487.63;5044104;28;20052;-92
2022/01/22 00:39:11;;;;;;;0.70;0.70;;;;;;;-7.29;84.66;97490.25;5049562;28;20046;-90
2022/01/22 00:41:40;;;;;;;0.73;0.73;;;;;;;-7.29;84.42;97485.84;5048907;28;20131;-90
2022/01/22 00:44:09;;;;;;;0.70;0.70;;;;;;;-7.32;84.32;97487.97;5050438;28;20045;-92
2022/01/22 00:46:40;;;;;;;0.85;0.85;;;;;;;-7.33;84.53;97496.84;5054381;28;20536;-91
2022/01/22 00:49:08;;;;;;;0.50;0.50;;;;;;;-7.39;84.43;97492.25;5050518;28;20052;-92
2022/01/22 00:51:35;;;;;;;0.75;0.75;;;;;;;-7.43;84.45;97497.84;5075408;28;20120;-94
2022/01/22 00:54:16;;;;;;;0.60;0.60;;;;;;;-7.54;84.61;97500.00;5038139;28;20142;-95
2022/01/22 00:56:46;;;;;;;0.68;0.68;;;;;;;-7.58;84.93;97506.56;5033821;28;20451;-90
2022/01/22 00:59:13;;;;;;;0.70;0.70;;;;;;;-7.58;84.96;97509.97;5047604;28;20064;-89
2022/01/22 01:01:41;;;;;;;0.60;0.60;;;;;;;-7.57;85.21;97501.16;5043609;28;20045;-88
2022/01/22 01:04:11;;;;;;;0.80;0.80;;;;;;;-7.52;85.28;97509.34;5049051;28;20073;-86
2022/01/22 01:06:38;;;;;;;0.70;0.70;;;;;;;-7.43;85.22;97512.75;5051962;28;20608;-83
2022/01/22 01:09:09;;;;;;;0.85;0.85;;;;;;;-7.38;85.17;97522.72;5035373;28;20053;-84
2022/01/22 01:11:51;;;;;;;0.77;0.77;;;;;;;-7.41;85.08;97511.59;5057159;28;20522;-87
2022/01/22 01:14:26;;;;;;;0.80;0.80;;;;;;;-7.39;84.99;97513.22;5049214;28;20053;-87
2022/01/22 01:36:06;;;;;;;0.60;0.60;;;;;;;-7.35;84.40;97525.00;5033727;28;20144;-87
2022/01/22 01:38:41;;;;;;;0.63;0.63;;;;;;;-7.36;84.23;97526.81;5033455;28;20084;-88
2022/01/22 01:41:19;;;;;;;0.70;0.70;;;;;;;-7.38;84.47;97530.59;5034424;28;20085;-87
2022/01/22 01:43:49;;;;;;;0.60;0.60;;;;;;;-7.43;84.42;97524.03;5035446;28;20042;-87
2022/01/22 01:47:03;;;;;;;0.88;0.88;;;;;;;-7.43;84.59;97523.22;5019803;28;20423;-88
2022/01/22 01:49:34;;;;;;;0.65;0.65;;;;;;;-7.46;84.72;97520.94;5032920;28;20053;-88
2022/01/22 01:52:06;;;;;;;0.70;0.70;;;;;;;-7.47;84.85;97528.00;5033085;28;20048;-88
2022/01/22 01:54:47;;;;;;;0.60;0.60;;;;;;;-7.48;84.65;97517.66;5032732;28;20050;-87
2022/01/22 01:57:38;;;;;;;0.52;0.52;;;;;;;-7.51;84.84;97526.69;5032546;28;20523;-87
2022/01/22 02:00:14;;;;;;;0.60;0.60;;;;;;;-7.55;84.95;97530.59;5032852;28;20057;-89
2022/01/22 02:02:44;;;;;;;0.80;0.80;;;;;;;-7.56;84.80;97528.97;5033594;28;20057;-88
2022/01/22 02:05:15;;;;;;;0.80;0.80;;;;;;;-7.55;84.90;97535.03;5032719;28;20420;-87
2022/01/22 02:07:44;;;;;;;0.70;0.70;;;;;;;-7.58;85.11;97541.44;5032678;28;20128;-87
2022/01/22 02:10:23;;;;;;;0.77;0.77;;;;;;;-7.55;84.93;97543.72;5032913;28;20076;-87
2022/01/22 02:24:03;;;;;;;0.82;0.82;;;;;;;-7.53;85.26;97548.78;5032416;28;20294;-88
2022/01/22 02:26:33;;;;;;;0.77;0.77;;;;;;;-7.58;85.06;97545.84;5017017;28;20132;-88
2022/01/22 02:29:03;;;;;;;0.77;0.77;;;;;;;-7.54;85.15;97552.41;5016194;28;20053;-87
2022/01/22 02:32:22;;;;;;;0.70;0.70;;;;;;;-7.55;85.33;97556.81;5031951;28;20500;-88
2022/01/22 02:34:43;;;;;;;0.73;0.73;;;;;;;-7.60;85.15;97548.63;5032139;28;20070;-88
2022/01/22 02:37:15;;;;;;;0.65;0.65;;;;;;;-7.58;85.36;97554.53;5033519;28;20076;-88
2022/01/22 02:39:57;;;;;;;0.80;0.80;;;;;;;-7.54;85.36;97557.66;5031602;28;20064;-87
2022/01/22 02:42:30;;;;;;;0.65;0.65;;;;;;;-7.54;85.37;97555.84;5032765;28;20071;-86
2022/01/22 02:44:59;;;;;;;0.70;0.70;;;;;;;-7.52;85.31;97564.38;5032647;28;20057;-86
2022/01/22 02:47:29;;;;;;;0.60;0.60;;;;;;;-7.50;85.46;97561.56;5032194;28;20053;-87
2022/01/22 02:49:57;;;;;;;0.73;0.73;;;;;;;-7.53;85.23;97559.28;5033169;28;20041;-87
2022/01/22 02:52:24;;;;;;;0.63;0.63;;;;;;;-7.50;85.34;97564.19;5033117;28;20127;-87
2022/01/22 02:54:53;;;;;;;0.70;0.70;;;;;;;-7.47;85.37;97563.84;5031366;28;20578;-88
2022/01/22 02:57:20;;;;;;;0.60;0.60;;;;;;;-7.44;85.34;97564.34;5031702;28;20042;-87
2022/01/22 02:59:53;;;;;;;0.63;0.63;;;;;;;-7.42;85.31;97558.91;5030725;28;20131;-87
2022/01/22 03:02:20;;;;;;;0.70;0.70;;;;;;;-7.38;85.19;97570.72;5031436;28;20056;-86
2022/01/22 03:04:47;;;;;;;0.60;0.60;;;;;;;-7.37;85.20;97566.28;5031209;28;20478;-87
2022/01/22 03:07:15;;;;;;;0.80;0.80;;;;;;;-7.30;85.30;97572.50;5031504;28;20144;-87
2022/01/22 03:09:45;;;;;;;0.68;0.68;;;;;;;-7.27;85.19;97574.78;5014679;28;20049;-88
2022/01/22 03:17:57;;;;;;;0.80;0.80;;;;;;;-7.30;84.92;97575.94;5017859;28;20140;-87
2022/01/22 03:29:31;;;;;;;0.60;0.60;;;;;;;-7.25;84.86;97593.81;5031995;28;20057;-86
2022/01/22 03:31:41;;;;;;;0.60;0.60;;;;;;;-7.23;84.71;97597.09;5030440;28;20057;-86
2022/01/22 03:34:10;;;;;;;0.70;0.70;;;;;;;-7.22;84.88;97599.53;5031301;28;20053;-85
2022/01/22 03:36:38;;;;;;;0.77;0.77;;;;;;;-7.25;84.86;97599.06;5032361;28;20136;-87
2022/01/22 03:39:08;;;;;;;0.70;0.70;;;;;;;-7.24;85.05;97609.38;5031200;28;20046;-86
2022/01/22 03:41:36;;;;;;;0.90;0.90;;;;;;;-7.25;84.76;97612.16;5031845;28;20081;-87
2022/01/22 03:44:05;;;;;;;0.70;0.70;;;;;;;-7.26;84.95;97610.53;5030794;28;20049;-85
2022/01/22 03:46:38;;;;;;;0.60;0.60;;;;;;;-7.29;84.91;97613.47;5030764;28;20052;-87
2022/01/22 03:49:05;;;;;;;0.70;0.70;;;;;;;-7.25;84.95;97622.66;5030917;28;20053;-87
2022/01/22 03:51:33;;;;;;;0.70;0.70;;;;;;;-7.26;84.99;97628.88;5031963;28;20412;-86
2022/01/22 03:54:00;;;;;;;0.60;0.60;;;;;;;-7.29;84.80;97637.06;5030771;28;20053;-88
2022/01/22 03:56:32;;;;;;;0.70;0.70;;;;;;;-7.28;84.94;97642.16;5015036;28;20128;-87
2022/01/22 03:59:12;;;;;;;0.70;0.70;;;;;;;-7.28;84.81;97646.56;5030655;28;20111;-87
2022/01/22 04:04:51;;;;;;;0.60;0.60;;;;;;;-7.37;84.78;97647.56;5030693;28;20053;-88
2022/01/22 04:10:08;;;;;;;0.70;0.70;;;;;;;-7.50;85.01;97648.84;5031651;28;20056;-84
2022/01/22 04:12:48;;;;;;;0.73;0.73;;;;;;;-7.56;85.25;97648.72;5032928;28;20041;-83
2022/01/22 04:15:20;;;;;;;0.75;0.75;;;;;;;-7.54;85.24;97654.59;5034380;28;20535;-86
2022/01/22 04:26:08;;;;;;;0.75;0.75;;;;;;;-7.52;85.65;97670.97;5035237;28;20053;-86
2022/01/22 04:28:35;;;;;;;0.70;0.70;;;;;;;-7.54;85.50;97671.16;5035856;28;20049;-86
2022/01/22 04:31:02;;;;;;;0.80;0.80;;;;;;;-7.56;85.66;97665.25;5037152;28;20049;-85
2022/01/22 04:33:30;;;;;;;0.80;0.80;;;;;;;-7.53;85.43;97669.34;5037626;28;20423;-85
2022/01/22 04:35:57;;;;;;;0.70;0.70;;;;;;;-7.49;85.76;97676.72;5045771;28;20045;-88
2022/01/22 04:38:25;;;;;;;0.70;0.70;;;;;;;-7.46;85.54;97676.38;5058329;28;20056;-86
2022/01/22 04:40:52;;;;;;;0.68;0.68;;;;;;;-7.40;85.52;97688.00;5031688;28;20476;-88
2022/01/22 04:43:20;;;;;;;0.80;0.80;;;;;;;-7.35;85.53;97680.47;5018524;28;20117;-86
2022/01/22 04:56:52;;;;;;;0.65;0.65;;;;;;;-7.18;84.89;97694.41;5033223;28;20049;-86
2022/01/22 04:59:19;;;;;;;0.70;0.70;;;;;;;-7.15;84.78;97693.28;5015783;28;20045;-85
2022/01/22 05:01:48;;;;;;;0.70;0.70;;;;;;;-7.10;84.64;97707.53;5016004;28;20480;-86
2022/01/22 05:04:27;;;;;;;0.68;0.68;;;;;;;-7.06;84.74;97711.47;5032945;28;20562;-86
2022/01/22 05:07:20;;;;;;;0.80;0.80;;;;;;;-7.05;84.47;97705.22;5012341;28;20127;-87
2022/01/22 05:10:01;;;;;;;0.70;0.70;;;;;;;-7.02;84.76;97717.19;5017122;28;20054;-85
2022/01/22 05:12:31;;;;;;;0.80;0.80;;;;;;;-7.05;84.59;97712.28;5033153;28;20041;-85
2022/01/22 05:14:59;;;;;;;0.60;0.60;;;;;;;-7.07;84.61;97716.88;5016322;28;20055;-86
2022/01/22 05:17:26;;;;;;;0.68;0.68;;;;;;;-7.09;84.74;97721.44;5016109;28;20045;-86
2022/01/22 05:20:04;;;;;;;0.70;0.70;;;;;;;-7.05;84.78;97731.44;5016182;28;20575;-87
2022/01/22 05:25:07;;;;;;;0.70;0.70;;;;;;;-7.02;84.65;97741.59;5016962;28;20049;-89
2022/01/22 05:27:58;;;;;;;0.70;0.70;;;;;;;-6.97;84.73;97734.06;5023553;28;20061;-87
2022/01/22 05:39:21;;;;;;;0.70;0.70;;;;;;;-6.93;84.72;97757.38;5033153;28;20128;-84
2022/01/22 05:41:48;;;;;;;0.73;0.73;;;;;;;-6.92;84.70;97770.31;5033657;28;20045;-85
2022/01/22 05:44:17;;;;;;;0.60;0.60;;;;;;;-6.89;84.66;97766.53;5040366;28;20057;-87
2022/01/22 05:46:44;;;;;;;0.70;0.70;;;;;;;-6.89;84.77;97769.97;5047359;28;20045;-85
2022/01/22 05:49:12;;;;;;;0.80;0.80;;;;;;;-6.86;84.64;97774.06;5047675;28;20053;-84
2022/01/22 05:51:45;;;;;;;0.65;0.65;;;;;;;-6.87;84.51;97765.38;5052592;28;20126;-87
2022/01/22 05:59:39;;;;;;;0.70;0.70;;;;;;;-6.80;84.34;97783.91;5035576;28;20049;-83
2022/01/22 06:02:14;;;;;;;0.50;0.50;;;;;;;-6.76;84.52;97780.81;5030613;28;20049;-87
2022/01/22 06:04:47;;;;;;;0.70;0.70;;;;;;;-6.74;84.67;97791.13;4694572;28;10001101;-84
2022/01/22 06:07:17;;;;;;;0.77;0.77;;;;;;;-6.70;84.58;97802.94;5046636;28;20045;-84
2022/01/22 06:15:10;;;;;;;0.90;0.90;;;;;;;-6.65;84.42;97805.06;5047260;28;20142;-87
2022/01/22 06:18:02;;;;;;;0.70;0.70;;;;;;;-6.66;84.52;97814.75;5031345;28;20053;-86
2022/01/22 06:20:30;;;;;;;0.68;0.68;;;;;;;-6.62;84.58;97828.38;5044940;28;20119;-87
2022/01/22 06:22:57;;;;;;;0.60;0.60;;;;;;;-6.63;84.71;97822.31;5041893;28;20041;-88
2022/01/22 06:25:25;;;;;;;0.52;0.52;;;;;;;-6.62;84.56;97817.88;5041620;28;20093;-87
2022/01/22 06:27:52;;;;;;;0.50;0.50;;;;;;;-6.55;84.64;97832.78;5037276;28;20053;-89
2022/01/22 06:30:20;;;;;;;0.73;0.73;;;;;;;-6.53;84.75;97832.63;5048579;28;20067;-86
2022/01/22 06:32:51;;;;;;;0.77;0.77;;;;;;;-6.50;84.58;97834.13;5029374;28;20056;-84
2022/01/22 06:35:18;;;;;;;0.70;0.70;;;;;;;-6.45;84.57;97837.06;5052698;28;20084;-82
2022/01/22 06:37:45;;;;;;;0.70;0.70;;;;;;;-6.41;84.48;97839.16;5046541;28;20055;-85
2022/01/22 06:43:28;;;;;;;0.70;0.70;;;;;;;-6.39;84.28;97837.19;5042352;28;20060;-83
2022/01/22 06:46:14;;;;;;;0.80;0.80;;;;;;;-6.29;84.35;97849.34;5033828;28;20057;-84
2022/01/22 06:48:55;;;;;;;0.60;0.60;;;;;;;-6.23;84.13;97852.13;5037032;28;20053;-88
2022/01/22 06:51:45;;;;;;;0.70;0.70;;;;;;;-6.19;84.05;97852.63;5046195;28;20412;-88
2022/01/22 06:54:14;;;;;;;0.80;0.80;;;;;;;-6.20;83.74;97848.34;5017784;28;20049;-88
2022/01/22 06:56:41;;;;;;;0.50;0.50;;;;;;;-6.14;83.88;97855.56;5043166;28;20124;-84
2022/01/22 06:59:13;;;;;;;0.70;0.70;;;;;;;-6.06;83.94;97871.31;5033031;28;20052;-86
2022/01/22 07:01:45;;;;;;;0.80;0.80;;;;;;;-6.06;83.75;97873.94;5031785;28;20068;-85
2022/01/22 07:04:17;;;;;;;0.80;0.80;;;;;;;-6.03;83.93;97881.47;5037358;28;20053;-85
2022/01/22 07:07:10;;;;;;;0.70;0.70;;;;;;;-5.90;83.84;97886.19;5048108;28;20056;-82
2022/01/22 07:09:41;;;;;;;0.70;0.70;;;;;;;-5.79;83.49;97890.28;5047143;28;20056;-84
2022/01/22 07:12:10;;;;;;;0.90;0.90;;;;;;;-5.71;83.04;97885.81;4694952;28;9999674;-82
2022/01/22 07:14:38;;;;;;;0.80;0.80;;;;;;;-5.71;82.86;97888.44;5040481;28;20056;-85
2022/01/22 07:17:08;;;;;;;0.60;0.60;;;;;;;-5.53;82.79;97895.31;5058512;28;20052;-84
2022/01/22 07:19:43;;;;;;;0.80;0.80;;;;;;;-5.45;82.38;97892.63;5048784;28;20049;-85
2022/01/22 07:22:39;;;;;;;0.70;0.70;;;;;;;-5.44;82.16;97907.44;5031187;28;20095;-84
2022/01/22 07:25:29;;;;;;;0.80;0.80;;;;;;;-5.50;82.16;97902.84;5045578;28;20049;-83
2022/01/22 07:28:01;;;;;;;0.80;0.80;;;;;;;-5.55;82.23;97913.03;5058624;28;20053;-87
2022/01/22 07:30:32;;;;;;;0.80;0.80;;;;;;;-5.56;82.30;97922.75;5050861;28;20148;-85
2022/01/22 07:32:59;;;;;;;0.82;0.82;;;;;;;-5.58;82.43;97932.59;5050054;28;20041;-83
2022/01/22 07:35:26;;;;;;;0.65;0.65;;;;;;;-5.62;82.43;97939.22;5051158;28;20045;-86
2022/01/22 07:38:05;;;;;;;0.88;0.88;;;;;;;-5.67;82.82;97939.72;5050074;28;20092;-85
2022/01/22 07:40:32;;;;;;;0.75;0.75;;;;;;;-5.69;82.75;97946.13;5043026;28;20061;-89
2022/01/22 07:43:02;;;;;;;0.73;0.73;;;;;;;-5.59;82.79;97952.00;5049484;28;20063;-86
2022/01/22 07:45:48;;;;;;;0.70;0.70;;;;;;;-5.57;82.71;97957.09;5049625;28;20066;-87
2022/01/22 07:48:21;;;;;;;0.80;0.80;;;;;;;-5.51;82.82;97961.69;5050973;28;20079;-87
2022/01/22 07:51:08;;;;;;;0.60;0.60;;;;;;;-5.43;82.60;97971.38;5033934;28;20265;-86
2022/01/22 07:53:36;;;;;;;0.80;0.80;;;;;;;-5.40;82.80;97969.22;5029825;28;20350;-85
2022/01/22 07:56:11;;;;;;;0.80;0.80;;;;;;;-5.35;82.30;97972.16;5050172;28;20041;-84
2022/01/22 07:58:39;;;;;;;0.73;0.73;;;;;;;-5.33;82.44;97982.53;5036779;28;20322;-82
2022/01/22 08:01:08;;;;;;;0.80;0.80;;;;;;;-5.32;82.24;97979.69;5045077;28;20546;-84
2022/01/22 08:04:02;;;;;;;0.70;0.70;;;;;;;-5.18;82.59;97980.00;5025282;28;20065;-86
2022/01/22 08:06:51;;;;;;;0.70;0.70;;;;;;;-5.08;82.03;97983.25;5034296;28;20096;-88
2022/01/22 08:09:41;;;;;;;0.80;0.80;;;;;;;-5.08;81.75;97984.09;5034642;28;20136;-86
2022/01/22 08:12:19;;;;;;;0.70;0.70;;;;;;;-5.06;81.79;97981.28;5017724;28;20053;-85
2022/01/22 08:14:48;;;;;;;0.70;0.70;;;;;;;-5.05;81.70;97988.19;5015948;28;20078;-86
2022/01/22 08:17:20;;;;;;;0.65;0.65;;;;;;;-5.02;81.72;97993.09;5040526;28;20136;-89
2022/01/22 08:19:48;;;;;;;0.73;0.73;;;;;;;-4.96;81.72;97996.84;5047118;28;20053;-85
2022/01/22 08:22:33;;;;;;;1.02;1.02;;;;;;;-4.88;81.24;97988.94;5036160;28;20094;-86
2022/01/22 08:25:19;;;;;;;0.82;0.82;;;;;;;-4.76;81.02;97994.63;5033465;28;20048;-84
2022/01/22 08:30:34;;;;;;;0.98;0.98;;;;;;;-4.69;80.70;98003.50;5040875;28;20053;-85
2022/01/22 08:35:52;;;;;;;1.00;1.00;;;;;;;-4.67;80.71;98017.31;5031996;28;20053;-84
2022/01/22 08:36:08;;;;;;;0.82;0.82;;;;;;;-4.66;80.56;98013.69;5046365;28;20058;-83
2022/01/22 08:38:35;;;;;;;0.90;0.90;;;;;;;-4.56;80.56;98030.09;5048679;28;20052;-83
2022/01/22 08:41:11;;;;;;;0.68;0.68;;;;;;;-4.51;80.39;98022.50;5042982;28;20057;-83
2022/01/22 08:43:41;;;;;;;0.77;0.77;;;;;;;-4.43;80.39;98019.84;5047226;28;20068;-82
2022/01/22 08:46:09;;;;;;;1.00;1.00;;;;;;;-4.38;80.31;98028.03;5028780;28;20048;-81
2022/01/22 08:48:37;;;;;;;1.00;1.00;;;;;;;-4.33;80.29;98032.75;5047644;28;20094;-83
2022/01/22 08:51:07;;;;;;;0.90;0.90;;;;;;;-4.30;80.04;98034.22;5037230;28;20051;-82
2022/01/22 08:53:50;;;;;;;0.90;0.90;;;;;;;-4.32;79.91;98031.78;5043090;28;20049;-82
2022/01/22 08:56:19;;;;;;;0.80;0.80;;;;;;;-4.34;79.83;98038.22;5057471;28;20400;-82
2022/01/22 08:58:50;;;;;;;0.88;0.88;;;;;;;-4.36;79.56;98033.94;5050046;28;20515;-83
2022/01/22 09:01:39;;;;;;;0.98;0.98;;;;;;;-4.40;79.38;98047.63;5053549;28;20064;-83
2022/01/22 09:04:31;;;;;;;1.00;1.00;;;;;;;-4.43;79.63;98043.53;5036625;28;20088;-81
2022/01/22 09:07:20;;;;;;;0.98;0.98;;;;;;;-4.40;79.53;98051.09;5047545;28;20530;-83
2022/01/22 09:10:06;;;;;;;0.93;0.93;;;;;;;-4.46;79.21;98051.75;5050945;28;20048;-84
2022/01/22 09:12:51;;;;;;;0.73;0.73;;;;;;;-4.39;79.14;98065.88;5046631;28;20515;-89
2022/01/22 09:15:30;;;;;;;0.90;0.90;;;;;;;-4.37;79.15;98068.38;5053278;28;20139;-88
2022/01/22 09:17:57;;;;;;;0.70;0.70;;;;;;;-4.38;78.88;98074.59;5049820;28;20061;-87
2022/01/22 09:23:12;;;;;;;0.98;0.98;;;;;;;-4.43;79.05;98083.06;5052026;28;20055;-84
2022/01/22 09:25:42;;;;;;;1.00;1.00;;;;;;;-4.56;79.14;98082.75;5050236;28;20056;-87
2022/01/22 09:28:14;;;;;;;0.90;0.90;;;;;;;-4.54;79.52;98093.94;5047821;28;20162;-84
2022/01/22 09:30:47;;;;;;;0.90;0.90;;;;;;;-4.47;79.52;98096.72;5021320;28;20103;-84
2022/01/22 09:33:15;;;;;;;0.85;0.85;;;;;;;-4.37;79.44;98113.16;5032479;28;20123;-84
2022/01/22 09:35:53;;;;;;;0.80;0.80;;;;;;;-4.37;79.12;98102.59;5035928;28;20474;-83
2022/01/22 09:38:44;;;;;;;0.90;0.90;;;;;;;-4.33;79.19;98103.06;5010213;28;20121;-85
2022/01/22 09:41:34;;;;;;;0.98;0.98;;;;;;;-4.25;78.74;98103.88;4953171;29;20089;-83
2022/01/22 09:44:33;;;;;;;0.90;0.90;;;;;;;-4.33;78.52;98105.72;4949913;29;20377;-85
2022/01/22 09:47:19;;;;;;;0.90;0.90;;;;;;;-4.30;79.05;98105.34;4953490;29;20358;-85
2022/01/22 09:50:04;;;;;;;0.70;0.70;;;;;;;-4.30;78.90;98106.19;4951874;29;20063;-85
2022/01/22 09:53:09;;;;;;;0.90;0.90;;;;;;;-4.40;78.47;98108.22;4923757;29;20565;-87
2022/01/22 09:56:03;;;;;;;0.90;0.90;;;;;;;-4.37;78.84;98099.97;4949461;29;20075;-84
2022/01/22 09:58:40;;;;;;;0.80;0.80;;;;;;;-4.36;78.71;98105.06;4953489;29;20051;-82
2022/01/22 10:01:25;;;;;;;0.85;0.85;;;;;;;-4.29;79.24;98123.63;4952679;29;20466;-84
2022/01/22 10:04:02;;;;;;;1.10;1.10;;;;;;;-4.29;79.01;98122.81;4946275;29;20051;-83
2022/01/22 10:06:53;;;;;;;1.00;1.00;;;;;;;-4.21;78.98;98128.06;4952208;29;20506;-85
2022/01/22 10:09:58;;;;;;;0.70;0.70;;;;;;;-4.24;79.00;98113.41;4946496;28;20047;-87
2022/01/22 10:12:54;;;;;;;1.00;1.00;;;;;;;-4.29;78.98;98125.47;4953084;29;20059;-85
2022/01/22 10:15:34;;;;;;;0.70;0.70;;;;;;;-4.32;79.16;98121.34;4976752;28;20061;-86
2022/01/22 10:18:08;;;;;;;0.73;0.73;;;;;;;-4.38;79.22;98117.59;4992890;28;20092;-87
2022/01/22 10:20:40;;;;;;;0.90;0.90;;;;;;;-4.34;79.59;98122.53;5049803;28;20041;-87
2022/01/22 10:23:37;;;;;;;0.90;0.90;;;;;;;-4.18;79.74;98125.91;5009633;28;20129;-94
2022/01/22 10:26:05;;;;;;;0.63;0.63;;;;;;;-4.09;79.48;98131.94;5052080;28;20103;-85
2022/01/22 10:29:01;;;;;;;0.93;0.93;;;;;;;-3.97;78.83;98133.22;5054865;28;20072;-85
2022/01/22 10:31:42;;;;;;;0.95;0.95;;;;;;;-3.85;78.56;98135.44;5056313;28;20144;-89
2022/01/22 10:34:31;;;;;;;0.80;0.80;;;;;;;-3.86;78.14;98142.53;5048130;28;20056;-90
2022/01/22 10:37:31;;;;;;;0.77;0.77;;;;;;;-3.90;78.18;98143.03;5029500;28;20056;-87
2022/01/22 10:40:18;;;;;;;0.70;0.70;;;;;;;-3.85;78.36;98141.53;5054451;28;20053;-87
2022/01/22 10:42:46;;;;;;;0.90;0.90;;;;;;;-3.88;78.16;98146.34;5046596;28;20222;-89
2022/01/22 10:45:22;;;;;;;0.90;0.90;;;;;;;-3.86;78.43;98152.25;5059615;28;20110;-87
2022/01/22 10:48:15;;;;;;;0.90;0.90;;;;;;;-3.88;78.30;98149.78;5039196;28;20049;-89
2022/01/22 10:50:43;;;;;;;0.95;0.95;;;;;;;-3.95;78.31;98147.03;5050972;28;20140;-87
2022/01/22 10:53:10;;;;;;;0.90;0.90;;;;;;;-3.91;78.50;98155.41;5041820;28;20095;-86
2022/01/22 10:56:02;;;;;;;0.90;0.90;;;;;;;-3.80;78.06;98167.38;5040356;28;20486;-88
2022/01/22 10:58:33;;;;;;;1.00;1.00;;;;;;;-3.86;78.09;98168.09;5033247;28;20059;-88
2022/01/22 11:01:04;;;;;;;1.00;1.00;;;;;;;-3.89;78.48;98155.25;5046902;28;20041;-88
2022/01/22 11:03:32;;;;;;;0.95;0.95;;;;;;;-3.76;78.21;98185.31;5055085;28;20049;-89
2022/01/22 11:06:05;;;;;;;0.90;0.90;;;;;;;-3.77;78.39;98173.16;5057349;28;20057;-86
2022/01/22 11:08:33;;;;;;;0.70;0.70;;;;;;;-3.77;78.45;98173.16;5047423;28;20048;-87
2022/01/22 11:11:01;;;;;;;0.93;0.93;;;;;;;-3.81;78.24;98181.56;5038693;28;20053;-87
2022/01/22 11:13:29;;;;;;;0.85;0.85;;;;;;;-3.92;78.36;98186.22;5047338;28;20106;-86
2022/01/22 11:15:59;;;;;;;0.80;0.80;;;;;;;-3.88;78.59;98193.78;5038813;28;20068;-86
2022/01/22 11:18:27;;;;;;;0.80;0.80;;;;;;;-3.84;78.84;98192.47;5053927;28;20049;-85
2022/01/22 11:20:54;;;;;;;0.85;0.85;;;;;;;-3.85;78.48;98188.16;5055457;28;20053;-85
2022/01/22 11:23:22;;;;;;;0.70;0.70;;;;;;;-3.83;78.56;98202.81;5053311;28;20053;-84
2022/01/22 11:25:50;;;;;;;0.90;0.90;;;;;;;-3.82;78.57;98203.63;5042708;28;20416;-84
2022/01/22 11:28:19;;;;;;;1.00;1.00;;;;;;;-3.80;78.37;98206.94;5051122;28;20107;-84
2022/01/22 11:30:47;;;;;;;0.85;0.85;;;;;;;-3.78;78.25;98211.03;5050314;28;20056;-86
2022/01/22 11:33:17;;;;;;;1.10;1.10;;;;;;;-3.76;77.96;98210.88;5040075;28;20136;-85
2022/01/22 11:35:53;;;;;;;1.00;1.00;;;;;;;-3.78;78.15;98223.41;5042494;28;20119;-84
2022/01/22 11:38:27;;;;;;;0.90;0.90;;;;;;;-3.73;78.04;98223.72;5031924;28;20056;-84
2022/01/22 11:41:24;;;;;;;0.80;0.80;;;;;;;-3.78;78.16;98229.50;5036299;28;20049;-84
2022/01/22 11:44:14;;;;;;;0.90;0.90;;;;;;;-3.85;78.21;98227.72;5033789;28;20053;-85
2022/01/22 11:46:51;;;;;;;0.77;0.77;;;;;;;-3.80;78.41;98241.22;5039909;28;20049;-84
2022/01/22 11:49:28;;;;;;;0.80;0.80;;;;;;;-3.81;78.36;98247.50;5044268;28;20117;-85
2022/01/22 11:52:24;;;;;;;0.82;0.82;;;;;;;-3.85;78.52;98244.34;5043002;28;20148;-86
2022/01/22 11:54:57;;;;;;;0.90;0.90;;;;;;;-3.89;78.47;98258.06;5036697;28;20060;-85
2022/01/22 11:57:27;;;;;;;0.82;0.82;;;;;;;-3.96;78.58;98264.00;5044840;28;20045;-85
2022/01/22 12:00:25;;;;;;;1.02;1.02;;;;;;;-3.86;78.83;98269.09;5039364;28;20091;-84
2022/01/22 12:03:08;;;;;;;0.90;0.90;;;;;;;-3.78;78.60;98278.78;5040175;28;20059;-84
2022/01/22 12:05:56;;;;;;;0.90;0.90;;;;;;;-3.76;78.33;98282.06;5045857;28;20057;-86
2022/01/22 12:08:24;;;;;;;0.90;0.90;;;;;;;-3.77;78.17;98289.16;5051838;28;20122;-85
2022/01/22 12:16:39;;;;;;;0.70;0.70;;;;;;;-3.95;78.21;98299.09;5044015;28;20405;-84
2022/01/22 12:19:36;;;;;;;0.93;0.93;;;;;;;-4.01;78.22;98308.50;5047092;28;20057;-88
2022/01/22 12:22:31;;;;;;;0.80;0.80;;;;;;;-4.08;78.46;98312.81;5039184;28;20056;-85
2022/01/22 12:25:02;;;;;;;0.63;0.63;;;;;;;-4.20;78.81;98316.78;5046065;28;20143;-87
2022/01/22 12:27:44;;;;;;;0.80;0.80;;;;;;;-4.26;79.22;98317.44;5045062;28;20105;-86
2022/01/22 12:30:15;;;;;;;0.85;0.85;;;;;;;-4.26;79.39;98325.34;5023542;28;20057;-83
2022/01/22 12:32:47;;;;;;;0.88;0.88;;;;;;;-4.23;79.33;98325.00;5032685;28;20531;-84
2022/01/22 12:35:19;;;;;;;0.90;0.90;;;;;;;-4.20;79.52;98327.34;5046615;28;20073;-84
2022/01/22 12:37:53;;;;;;;0.95;0.95;;;;;;;-4.30;79.47;98329.28;5032224;28;20579;-84
2022/01/22 12:40:28;;;;;;;0.80;0.80;;;;;;;-4.38;79.77;98343.28;5038814;28;20069;-84
2022/01/22 12:43:12;;;;;;;0.70;0.70;;;;;;;-4.43;79.74;98341.19;5041959;28;20068;-85
2022/01/22 12:45:42;;;;;;;0.90;0.90;;;;;;;-4.53;79.83;98337.06;5055530;28;20060;-84
2022/01/22 12:48:14;;;;;;;0.77;0.77;;;;;;;-4.52;80.05;98354.50;5054569;28;20516;-83
2022/01/22 12:50:41;;;;;;;0.90;0.90;;;;;;;-4.55;80.43;98349.59;5055756;28;20076;-84
2022/01/22 12:53:11;;;;;;;0.77;0.77;;;;;;;-4.57;80.53;98357.63;5026218;28;20575;-83
2022/01/22 12:58:24;;;;;;;0.90;0.90;;;;;;;-4.57;81.08;98365.53;5035209;28;20160;-83
2022/01/22 13:00:53;;;;;;;0.88;0.88;;;;;;;-4.52;81.02;98380.84;5038673;28;20076;-85
2022/01/22 13:03:38;;;;;;;0.90;0.90;;;;;;;-4.51;80.95;98374.59;5048383;28;20106;-83
2022/01/22 13:06:05;;;;;;;0.93;0.93;;;;;;;-4.50;80.96;98382.34;5047539;28;20140;-84
2022/01/22 13:08:58;;;;;;;0.85;0.85;;;;;;;-4.47;81.07;98383.81;5041892;28;20054;-84
2022/01/22 13:11:32;;;;;;;0.60;0.60;;;;;;;-4.47;81.12;98376.72;5049674;28;20136;-84
2022/01/22 13:14:00;;;;;;;0.90;0.90;;;;;;;-4.50;81.41;98384.97;5045711;28;20441;-83
2022/01/22 13:16:27;;;;;;;0.90;0.90;;;;;;;-4.53;81.74;98380.03;5036724;28;20044;-84
2022/01/22 13:18:58;;;;;;;0.80;0.80;;;;;;;-4.56;81.65;98385.59;5045507;28;20140;-84
2022/01/22 13:21:31;;;;;;;0.90;0.90;;;;;;;-4.64;81.79;98383.78;5049901;28;20114;-83
2022/01/22 13:24:05;;;;;;;0.43;0.43;;;;;;;-4.64;82.03;98388.25;4696534;28;10000268;-81
2022/01/22 13:26:42;;;;;;;0.70;0.70;;;;;;;-4.66;82.30;98384.94;5043399;28;20057;-81
2022/01/22 13:29:23;;;;;;;0.70;0.70;;;;;;;-4.64;82.37;98393.50;5049588;28;20681;-82
2022/01/22 13:31:56;;;;;;;0.88;0.88;;;;;;;-4.67;82.61;98399.09;5047388;28;20049;-81
2022/01/22 13:34:41;;;;;;;0.70;0.70;;;;;;;-4.67;82.62;98405.19;5040405;28;20091;-80
2022/01/22 13:48:32;;;;;;;0.60;0.60;;;;;;;-4.87;82.96;98422.25;5035926;28;20436;-88
2022/01/22 13:51:04;;;;;;;0.80;0.80;;;;;;;-4.84;83.22;98433.28;5031595;28;20144;-85
2022/01/22 13:53:32;;;;;;;0.80;0.80;;;;;;;-4.83;83.28;98434.94;5028962;28;20038;-84
2022/01/22 13:56:06;;;;;;;0.75;0.75;;;;;;;-4.84;82.95;98438.53;5028851;28;20160;-85
2022/01/22 13:58:33;;;;;;;0.85;0.85;;;;;;;-4.89;83.06;98438.19;5033699;28;20568;-84
2022/01/22 14:01:07;;;;;;;0.73;0.73;;;;;;;-4.88;83.54;98454.84;5035184;28;20053;-85
2022/01/22 14:04:13;;;;;;;0.90;0.90;;;;;;;-4.83;83.45;98456.00;5046464;28;20044;-84
2022/01/22 14:06:43;;;;;;;0.75;0.75;;;;;;;-4.81;83.34;98468.97;5029607;28;20061;-83
2022/01/22 14:09:18;;;;;;;0.70;0.70;;;;;;;-4.82;83.57;98470.81;5029397;28;20524;-86
2022/01/22 14:12:04;;;;;;;0.70;0.70;;;;;;;-4.74;83.31;98488.44;5029160;28;20149;-85